Time;durP1;ratioP1;P1;durP2;ratioP2;P2;SDS_P1;SDS_P2;PMS_P1;PMS_P2;Temp;Humidity;BMP_temperature;BMP_pressure;BME280_temperature;BME280_humidity;BME280_pressure;Samples;Min_cycle;Max_cycle;Signal;HPM_P1;HPM_P2
2023/05/06 00:01:24;;;;;;;;;;;13.50;99.90;;;;;;5101133;28;19920;-68
2023/05/06 00:03:52;;;;;;;;;;;13.50;99.90;;;;;;5103839;28;19988;-68
2023/05/06 00:06:18;;;;;;;;;;;13.50;99.90;;;;;;5100962;28;19975;-69
2023/05/06 00:08:45;;;;;;;;;;;13.50;99.90;;;;;;5102753;28;19983;-68
2023/05/06 00:11:12;;;;;;;;;;;13.60;99.90;;;;;;5105690;28;19920;-68
2023/05/06 00:13:39;;;;;;;;;;;13.50;99.90;;;;;;5123963;28;19923;-67
2023/05/06 00:16:06;;;;;;;;;;;13.50;99.90;;;;;;5123875;28;20115;-68
2023/05/06 00:18:32;;;;;;;;;;;13.50;99.90;;;;;;5124034;28;19926;-67
2023/05/06 00:21:00;;;;;;;;;;;13.50;99.90;;;;;;5124502;28;19958;-68
2023/05/06 00:23:27;;;;;;;;;;;13.50;99.90;;;;;;5124323;28;20055;-68
2023/05/06 00:25:54;;;;;;;;;;;13.50;99.90;;;;;;5123842;28;19954;-67
2023/05/06 00:28:20;;;;;;;;;;;13.50;99.90;;;;;;5124159;28;19949;-68
2023/05/06 00:30:47;;;;;;;;;;;13.50;99.90;;;;;;5123963;28;20287;-69
2023/05/06 00:33:14;;;;;;;;;;;13.50;99.90;;;;;;5124012;28;19951;-67
2023/05/06 00:35:40;;;;;;;;;;;13.50;99.90;;;;;;5123803;28;19923;-68
2023/05/06 00:38:09;;;;;;;;;;;13.50;99.90;;;;;;5123816;28;19995;-68
2023/05/06 00:40:35;;;;;;;;;;;13.50;99.90;;;;;;5123981;28;19924;-68
2023/05/06 00:43:02;;;;;;;;;;;13.60;99.90;;;;;;5124100;28;20159;-68
2023/05/06 00:45:29;;;;;;;;;;;13.50;99.90;;;;;;5123748;28;20331;-68
2023/05/06 00:47:56;;;;;;;;;;;13.50;99.90;;;;;;5123641;28;19987;-68
2023/05/06 00:50:23;;;;;;;;;;;13.50;99.90;;;;;;5124180;28;20162;-68
2023/05/06 00:52:50;;;;;;;;;;;13.50;99.90;;;;;;5124057;28;19951;-68
2023/05/06 00:55:18;;;;;;;;;;;13.50;99.90;;;;;;5124028;28;19986;-68
2023/05/06 00:57:45;;;;;;;;;;;13.50;99.90;;;;;;5123340;28;19926;-69
2023/05/06 01:00:12;;;;;;;;;;;13.50;99.90;;;;;;5123690;28;20234;-68
2023/05/06 01:02:39;;;;;;;;;;;13.60;99.90;;;;;;5123935;28;19924;-68
2023/05/06 01:05:06;;;;;;;;;;;13.60;99.90;;;;;;5123928;28;19994;-68
2023/05/06 01:07:35;;;;;;;;;;;13.60;99.90;;;;;;5112908;28;19947;-67
2023/05/06 01:10:04;;;;;;;;;;;13.60;99.90;;;;;;5103221;28;20294;-68
2023/05/06 01:12:37;;;;;;;;;;;13.60;99.90;;;;;;5117512;28;19920;-68
2023/05/06 01:15:07;;;;;;;;;;;13.70;99.90;;;;;;5113350;28;19954;-68
2023/05/06 01:17:35;;;;;;;;;;;13.60;99.90;;;;;;5102867;28;19923;-68
2023/05/06 01:20:03;;;;;;;;;;;13.60;99.90;;;;;;5103412;28;20164;-69
2023/05/06 01:22:32;;;;;;;;;;;13.60;99.90;;;;;;5105887;28;19966;-68
2023/05/06 01:25:00;;;;;;;;;;;13.60;99.90;;;;;;5107209;28;19934;-70
2023/05/06 01:27:27;;;;;;;;;;;13.60;99.90;;;;;;5106290;28;19948;-68
2023/05/06 01:29:54;;;;;;;;;;;13.60;99.90;;;;;;5107163;28;20152;-68
2023/05/06 01:32:29;;;;;;;;;;;13.60;99.90;;;;;;5107169;28;19920;-68
2023/05/06 01:34:59;;;;;;;;;;;13.60;99.90;;;;;;5107166;28;19926;-68
2023/05/06 01:37:28;;;;;;;;;;;13.60;99.90;;;;;;5106828;28;19927;-68
2023/05/06 01:39:55;;;;;;;;;;;13.60;99.90;;;;;;5107141;28;19926;-68
2023/05/06 01:42:24;;;;;;;;;;;13.60;99.90;;;;;;5106844;28;19987;-69
2023/05/06 01:44:51;;;;;;;;;;;13.60;99.90;;;;;;5106908;28;20144;-69
2023/05/06 01:47:18;;;;;;;;;;;13.60;99.90;;;;;;5106350;28;19920;-68
2023/05/06 01:49:45;;;;;;;;;;;13.60;99.90;;;;;;5106666;28;19920;-70
2023/05/06 01:52:12;;;;;;;;;;;13.60;99.90;;;;;;5106815;28;19927;-69
2023/05/06 01:54:38;;;;;;;;;;;13.60;99.90;;;;;;5106475;28;19920;-68
2023/05/06 01:57:05;;;;;;;;;;;13.60;99.90;;;;;;5106015;28;19959;-68
2023/05/06 01:59:33;;;;;;;;;;;13.60;99.90;;;;;;5106380;28;19987;-68
2023/05/06 02:02:00;;;;;;;;;;;13.60;99.90;;;;;;5103930;28;19959;-69
2023/05/06 02:04:26;;;;;;;;;;;13.60;99.90;;;;;;5106532;28;19926;-68
2023/05/06 02:06:53;;;;;;;;;;;13.60;99.90;;;;;;5105231;28;20165;-68
2023/05/06 02:09:20;;;;;;;;;;;13.60;99.90;;;;;;5106538;28;19987;-68
2023/05/06 02:11:46;;;;;;;;;;;13.60;99.90;;;;;;5106523;28;19928;-68
2023/05/06 02:14:13;;;;;;;;;;;13.60;99.90;;;;;;5106296;28;19983;-68
2023/05/06 02:16:41;;;;;;;;;;;13.60;99.90;;;;;;5105256;28;19951;-69
2023/05/06 02:19:07;;;;;;;;;;;13.60;99.90;;;;;;5106355;28;19920;-69
2023/05/06 02:21:34;;;;;;;;;;;13.70;99.90;;;;;;5106202;28;20119;-68
2023/05/06 02:24:01;;;;;;;;;;;13.60;99.90;;;;;;5105743;28;19920;-68
2023/05/06 02:26:27;;;;;;;;;;;13.60;99.90;;;;;;5105621;28;20111;-68
2023/05/06 02:28:54;;;;;;;;;;;13.60;99.90;;;;;;5105810;28;19991;-67
2023/05/06 02:31:21;;;;;;;;;;;13.50;99.90;;;;;;5105970;28;19983;-68
2023/05/06 02:33:50;;;;;;;;;;;13.50;99.90;;;;;;5104658;28;19920;-68
2023/05/06 02:36:16;;;;;;;;;;;13.40;99.90;;;;;;5105159;28;19942;-69
2023/05/06 02:38:43;;;;;;;;;;;13.40;99.90;;;;;;5105646;28;19927;-68
2023/05/06 02:41:10;;;;;;;;;;;13.40;99.90;;;;;;5105674;28;20115;-68
2023/05/06 02:43:36;;;;;;;;;;;13.40;99.90;;;;;;5105768;28;19965;-68
2023/05/06 02:46:03;;;;;;;;;;;13.40;99.90;;;;;;5105200;28;19926;-68
2023/05/06 02:48:30;;;;;;;;;;;13.40;99.90;;;;;;5105667;28;19920;-69
2023/05/06 02:50:58;;;;;;;;;;;13.40;99.90;;;;;;5105804;28;19983;-68
2023/05/06 02:53:25;;;;;;;;;;;13.40;99.90;;;;;;5091666;28;20188;-67
2023/05/06 02:55:51;;;;;;;;;;;13.40;99.90;;;;;;5085238;28;19988;-68
2023/05/06 02:58:18;;;;;;;;;;;13.40;99.90;;;;;;5085181;28;19964;-68
2023/05/06 03:00:45;;;;;;;;;;;13.30;99.90;;;;;;5085315;28;20120;-68
2023/05/06 03:03:11;;;;;;;;;;;13.30;99.90;;;;;;5085206;28;19987;-68
2023/05/06 03:05:38;;;;;;;;;;;13.40;99.90;;;;;;5084061;28;19956;-68
2023/05/06 03:08:06;;;;;;;;;;;13.30;99.90;;;;;;5099248;28;19955;-69
2023/05/06 03:10:33;;;;;;;;;;;13.40;99.90;;;;;;5105341;28;19927;-68
2023/05/06 03:12:59;;;;;;;;;;;13.40;99.90;;;;;;5105244;28;19983;-68
2023/05/06 03:15:27;;;;;;;;;;;13.30;99.90;;;;;;5104969;28;20262;-68
2023/05/06 03:17:53;;;;;;;;;;;13.30;99.90;;;;;;5104436;28;19946;-68
2023/05/06 03:20:20;;;;;;;;;;;13.30;99.90;;;;;;5104802;28;20258;-69
2023/05/06 03:22:47;;;;;;;;;;;13.20;99.90;;;;;;5105099;28;19920;-68
2023/05/06 03:25:15;;;;;;;;;;;13.30;99.90;;;;;;5104894;28;20163;-68
2023/05/06 03:27:42;;;;;;;;;;;13.20;99.90;;;;;;5104121;28;19926;-68
2023/05/06 03:30:09;;;;;;;;;;;13.20;99.90;;;;;;5104650;28;19920;-68
2023/05/06 03:32:36;;;;;;;;;;;13.20;99.90;;;;;;5104867;28;19920;-69
2023/05/06 03:35:03;;;;;;;;;;;13.20;99.90;;;;;;5104642;28;19920;-69
2023/05/06 03:37:30;;;;;;;;;;;13.20;99.90;;;;;;5104112;28;20171;-68
2023/05/06 03:39:57;;;;;;;;;;;13.10;99.90;;;;;;5104461;28;19965;-67
2023/05/06 03:42:25;;;;;;;;;;;13.10;99.90;;;;;;5104697;28;19988;-68
2023/05/06 03:44:51;;;;;;;;;;;13.20;99.90;;;;;;5104292;28;20115;-69
2023/05/06 03:47:18;;;;;;;;;;;13.20;99.90;;;;;;5103775;28;19926;-68
2023/05/06 03:49:45;;;;;;;;;;;13.10;99.90;;;;;;5104580;28;19956;-68
2023/05/06 03:52:11;;;;;;;;;;;13.10;99.90;;;;;;5104066;28;20232;-68
2023/05/06 03:54:38;;;;;;;;;;;13.10;99.90;;;;;;5104458;28;20108;-68
2023/05/06 03:57:04;;;;;;;;;;;13.00;99.90;;;;;;5103748;28;19963;-68
2023/05/06 03:59:32;;;;;;;;;;;13.10;99.90;;;;;;5104158;28;20231;-69
2023/05/06 04:01:59;;;;;;;;;;;13.10;99.90;;;;;;5104436;28;19983;-68
2023/05/06 04:04:27;;;;;;;;;;;13.00;99.90;;;;;;5104210;28;19987;-69
2023/05/06 04:06:53;;;;;;;;;;;13.00;99.90;;;;;;5103084;28;20266;-69
2023/05/06 04:09:20;;;;;;;;;;;13.00;99.90;;;;;;5104139;28;19962;-69
2023/05/06 04:11:46;;;;;;;;;;;13.00;99.90;;;;;;5104164;28;19988;-68
2023/05/06 04:14:13;;;;;;;;;;;13.00;99.90;;;;;;5103737;28;19984;-68
2023/05/06 04:16:41;;;;;;;;;;;13.00;99.90;;;;;;5103554;28;19962;-68
2023/05/06 04:19:08;;;;;;;;;;;12.90;99.90;;;;;;5103969;28;20115;-68
2023/05/06 04:21:34;;;;;;;;;;;13.00;99.90;;;;;;5103832;28;19924;-69
2023/05/06 04:24:01;;;;;;;;;;;13.00;99.90;;;;;;5103584;28;19942;-69
2023/05/06 04:26:28;;;;;;;;;;;13.00;99.90;;;;;;5103024;28;20254;-68
2023/05/06 04:28:54;;;;;;;;;;;13.00;99.90;;;;;;5103608;28;19920;-68
2023/05/06 04:31:22;;;;;;;;;;;13.00;99.90;;;;;;5103858;28;19920;-68
2023/05/06 04:33:52;;;;;;;;;;;13.00;99.90;;;;;;5103514;28;20213;-68
2023/05/06 04:36:18;;;;;;;;;;;13.00;99.90;;;;;;5103276;28;19920;-68
2023/05/06 04:38:46;;;;;;;;;;;13.10;99.90;;;;;;5103692;28;19983;-68
2023/05/06 04:41:12;;;;;;;;;;;13.10;99.90;;;;;;5103624;28;20158;-68
2023/05/06 04:43:40;;;;;;;;;;;13.10;99.90;;;;;;5103361;28;20121;-68
2023/05/06 04:46:07;;;;;;;;;;;13.10;99.90;;;;;;5103080;28;19920;-68
2023/05/06 04:48:33;;;;;;;;;;;13.10;99.90;;;;;;5103547;28;19927;-67
2023/05/06 04:51:03;;;;;;;;;;;13.10;99.90;;;;;;5103373;28;20231;-69
2023/05/06 04:53:29;;;;;;;;;;;13.20;99.90;;;;;;5103249;28;19924;-68
2023/05/06 04:55:56;;;;;;;;;;;13.20;99.90;;;;;;5103278;28;20100;-68
2023/05/06 04:58:23;;;;;;;;;;;13.20;99.90;;;;;;5107112;28;20253;-68
2023/05/06 05:00:49;;;;;;;;;;;13.20;99.90;;;;;;5107964;28;19920;-68
2023/05/06 05:03:16;;;;;;;;;;;13.10;99.90;;;;;;5107732;28;20162;-68
2023/05/06 05:05:43;;;;;;;;;;;13.10;99.90;;;;;;5107234;28;20010;-68
2023/05/06 05:08:12;;;;;;;;;;;13.10;99.90;;;;;;5107188;28;19951;-68
2023/05/06 05:10:40;;;;;;;;;;;13.10;99.90;;;;;;5107596;28;19920;-68
2023/05/06 05:13:07;;;;;;;;;;;13.20;99.90;;;;;;5107267;28;19983;-69
2023/05/06 05:15:35;;;;;;;;;;;13.20;99.90;;;;;;5105082;28;19984;-68
2023/05/06 05:18:01;;;;;;;;;;;13.10;99.90;;;;;;5106998;28;19975;-69
2023/05/06 05:20:28;;;;;;;;;;;13.10;99.90;;;;;;5107507;28;19928;-68
2023/05/06 05:22:55;;;;;;;;;;;13.10;99.90;;;;;;5107152;28;19920;-68
2023/05/06 05:25:23;;;;;;;;;;;13.10;99.90;;;;;;5107316;28;19920;-68
2023/05/06 05:27:49;;;;;;;;;;;13.10;99.90;;;;;;5106503;28;20238;-68
2023/05/06 05:30:16;;;;;;;;;;;13.20;99.90;;;;;;5106882;28;19987;-68
2023/05/06 05:32:43;;;;;;;;;;;13.20;99.90;;;;;;5106807;28;20227;-68
2023/05/06 05:35:09;;;;;;;;;;;13.20;99.90;;;;;;5106881;28;19955;-69
2023/05/06 05:37:36;;;;;;;;;;;13.20;99.90;;;;;;5106739;28;19920;-68
2023/05/06 05:40:03;;;;;;;;;;;13.30;99.90;;;;;;5107010;28;19952;-68
2023/05/06 05:42:32;;;;;;;;;;;13.20;99.90;;;;;;5106896;28;19926;-68
2023/05/06 05:44:59;;;;;;;;;;;13.20;99.90;;;;;;5106873;28;19969;-68
2023/05/06 05:47:25;;;;;;;;;;;13.20;99.90;;;;;;5106199;28;19991;-68
2023/05/06 05:49:53;;;;;;;;;;;13.10;99.90;;;;;;5106889;28;19987;-68
2023/05/06 05:52:19;;;;;;;;;;;13.10;99.90;;;;;;5106591;28;19990;-68
2023/05/06 05:54:46;;;;;;;;;;;13.10;99.90;;;;;;5106542;28;19959;-67
2023/05/06 05:57:12;;;;;;;;;;;13.10;99.90;;;;;;5105658;28;19956;-67
2023/05/06 05:59:40;;;;;;;;;;;13.10;99.90;;;;;;5104155;28;19991;-67
2023/05/06 06:02:07;;;;;;;;;;;13.10;99.90;;;;;;5103796;28;19928;-68
2023/05/06 06:04:34;;;;;;;;;;;13.20;99.90;;;;;;5106552;28;19920;-67
2023/05/06 06:07:01;;;;;;;;;;;13.20;99.90;;;;;;5105172;28;19975;-68
2023/05/06 06:09:28;;;;;;;;;;;13.20;99.90;;;;;;5106466;28;19928;-68
2023/05/06 06:11:54;;;;;;;;;;;13.20;99.90;;;;;;5103307;28;19920;-68
2023/05/06 06:14:21;;;;;;;;;;;13.20;99.90;;;;;;5105795;28;19963;-68
2023/05/06 06:16:49;;;;;;;;;;;13.20;99.90;;;;;;5105736;28;19955;-68
2023/05/06 06:19:16;;;;;;;;;;;13.20;99.90;;;;;;5106078;28;20096;-68
2023/05/06 06:21:42;;;;;;;;;;;13.30;99.90;;;;;;5105830;28;19998;-68
2023/05/06 06:24:09;;;;;;;;;;;13.30;99.90;;;;;;5105976;28;19979;-67
2023/05/06 06:26:35;;;;;;;;;;;13.40;99.90;;;;;;5105115;28;20018;-68
2023/05/06 06:29:02;;;;;;;;;;;13.40;99.90;;;;;;5105860;28;19983;-68
2023/05/06 06:31:29;;;;;;;;;;;13.40;99.90;;;;;;5106108;28;19978;-68
2023/05/06 06:33:57;;;;;;;;;;;13.50;99.90;;;;;;5105214;28;19991;-68
2023/05/06 06:36:23;;;;;;;;;;;13.60;99.90;;;;;;5105071;28;19991;-69
2023/05/06 06:38:50;;;;;;;;;;;13.70;99.90;;;;;;5105286;28;19920;-68
2023/05/06 06:41:16;;;;;;;;;;;13.70;99.90;;;;;;5105612;28;19983;-69
2023/05/06 06:43:43;;;;;;;;;;;13.70;99.90;;;;;;5105542;28;19920;-68
2023/05/06 06:46:10;;;;;;;;;;;13.80;99.90;;;;;;5104811;28;19965;-68
2023/05/06 06:48:36;;;;;;;;;;;13.80;99.90;;;;;;5105368;28;19955;-68
2023/05/06 06:51:05;;;;;;;;;;;13.90;99.90;;;;;;5105473;28;20166;-69
2023/05/06 06:53:31;;;;;;;;;;;13.90;99.90;;;;;;5085404;28;19938;-68
2023/05/06 06:55:58;;;;;;;;;;;14.00;99.90;;;;;;5085037;28;19928;-69
2023/05/06 06:58:25;;;;;;;;;;;14.00;99.90;;;;;;5085127;28;19921;-68
2023/05/06 07:00:51;;;;;;;;;;;14.00;99.90;;;;;;5084962;28;19921;-69
2023/05/06 07:03:18;;;;;;;;;;;14.10;99.90;;;;;;5085294;28;19955;-69
2023/05/06 07:05:45;;;;;;;;;;;14.10;99.90;;;;;;5099826;28;19920;-69
2023/05/06 07:08:13;;;;;;;;;;;14.20;99.90;;;;;;5089391;28;20269;-69
2023/05/06 07:10:40;;;;;;;;;;;14.30;99.90;;;;;;5098530;28;19920;-69
2023/05/06 07:13:07;;;;;;;;;;;14.30;99.90;;;;;;5105128;28;19920;-69
2023/05/06 07:15:33;;;;;;;;;;;14.30;99.90;;;;;;5105022;28;19955;-69
2023/05/06 07:18:00;;;;;;;;;;;14.30;99.90;;;;;;5103090;28;19979;-69
2023/05/06 07:20:26;;;;;;;;;;;14.30;99.90;;;;;;5104372;28;19920;-70
2023/05/06 07:22:53;;;;;;;;;;;14.30;99.90;;;;;;5104881;28;19926;-69
2023/05/06 07:25:21;;;;;;;;;;;14.40;99.90;;;;;;5084776;28;19956;-68
2023/05/06 07:27:48;;;;;;;;;;;14.40;99.90;;;;;;5084323;28;19928;-69
2023/05/06 07:30:14;;;;;;;;;;;14.40;99.90;;;;;;5082673;28;19928;-69
2023/05/06 07:32:42;;;;;;;;;;;14.40;99.90;;;;;;5084483;28;19920;-69
2023/05/06 07:35:09;;;;;;;;;;;14.50;99.90;;;;;;5084543;28;19920;-69
2023/05/06 07:37:35;;;;;;;;;;;14.60;99.90;;;;;;5084255;28;19927;-68
2023/05/06 07:40:02;;;;;;;;;;;14.60;99.90;;;;;;5084237;28;19976;-69
2023/05/06 07:42:30;;;;;;;;;;;14.60;99.90;;;;;;5084293;28;19920;-69
2023/05/06 07:44:56;;;;;;;;;;;14.60;99.90;;;;;;5084344;28;19921;-69
2023/05/06 07:47:27;;;;;;;;;;;14.60;99.90;;;;;;5083554;28;20124;-68
2023/05/06 07:49:54;;;;;;;;;;;14.60;99.90;;;;;;5092787;28;20093;-69
2023/05/06 07:52:21;;;;;;;;;;;14.80;99.90;;;;;;5084172;28;20179;-70
2023/05/06 07:54:47;;;;;;;;;;;14.90;99.90;;;;;;5090203;28;19990;-70
2023/05/06 07:57:14;;;;;;;;;;;15.00;99.90;;;;;;5094786;28;19984;-71
2023/05/06 07:59:43;;;;;;;;;;;15.10;99.90;;;;;;5089791;28;19920;-69
2023/05/06 08:02:09;;;;;;;;;;;15.10;99.90;;;;;;5093696;28;19962;-70
2023/05/06 08:04:36;;;;;;;;;;;15.10;99.90;;;;;;5101426;28;19920;-67
2023/05/06 08:07:02;;;;;;;;;;;15.20;99.90;;;;;;5097662;28;19920;-68
2023/05/06 08:09:29;;;;;;;;;;;15.20;99.90;;;;;;5082155;28;19975;-68
2023/05/06 08:11:57;;;;;;;;;;;15.30;99.90;;;;;;5083513;28;19928;-67
2023/05/06 08:14:24;;;;;;;;;;;15.40;99.90;;;;;;5081751;28;20216;-67
2023/05/06 08:16:53;;;;;;;;;;;15.50;99.90;;;;;;5082794;28;19983;-68
2023/05/06 08:19:20;;;;;;;;;;;15.60;99.90;;;;;;5083560;28;19920;-66
2023/05/06 08:21:46;;;;;;;;;;;15.60;99.90;;;;;;5083784;28;19983;-68
2023/05/06 08:24:13;;;;;;;;;;;15.80;99.90;;;;;;5083499;28;19984;-68
2023/05/06 08:26:40;;;;;;;;;;;15.80;99.90;;;;;;5082990;28;19974;-67
2023/05/06 08:29:07;;;;;;;;;;;15.80;99.90;;;;;;5083130;28;20412;-67
2023/05/06 08:31:34;;;;;;;;;;;15.90;99.90;;;;;;5083704;28;20116;-67
2023/05/06 08:34:02;;;;;;;;;;;15.90;99.90;;;;;;5082541;28;20223;-68
2023/05/06 08:36:28;;;;;;;;;;;16.00;99.90;;;;;;5082524;28;19985;-67
2023/05/06 08:38:55;;;;;;;;;;;16.00;99.90;;;;;;5083308;28;19929;-67
2023/05/06 08:41:21;;;;;;;;;;;16.10;99.90;;;;;;5083623;28;19960;-67
2023/05/06 08:43:49;;;;;;;;;;;16.20;99.90;;;;;;5083161;28;19920;-67
2023/05/06 08:46:16;;;;;;;;;;;16.30;99.90;;;;;;5082919;28;20178;-66
2023/05/06 08:48:42;;;;;;;;;;;16.30;99.90;;;;;;5083418;28;20287;-68
2023/05/06 08:51:12;;;;;;;;;;;16.30;99.90;;;;;;5083609;28;19921;-68
2023/05/06 08:53:40;;;;;;;;;;;16.40;99.90;;;;;;5082903;28;19924;-68
2023/05/06 08:56:07;;;;;;;;;;;16.50;99.90;;;;;;5082925;28;19963;-68
2023/05/06 08:58:34;;;;;;;;;;;16.50;99.90;;;;;;5082784;28;20227;-67
2023/05/06 09:01:02;;;;;;;;;;;16.50;99.90;;;;;;5083233;28;19963;-67
2023/05/06 09:03:29;;;;;;;;;;;16.50;99.90;;;;;;5083376;28;19920;-66
2023/05/06 09:05:56;;;;;;;;;;;16.50;99.90;;;;;;5082772;28;19920;-67
2023/05/06 09:08:23;;;;;;;;;;;16.40;99.90;;;;;;5083158;28;19975;-66
2023/05/06 09:10:50;;;;;;;;;;;16.50;99.90;;;;;;5080256;28;19927;-66
2023/05/06 09:13:18;;;;;;;;;;;16.60;99.90;;;;;;5082504;28;19988;-64
2023/05/06 09:15:46;;;;;;;;;;;16.70;99.90;;;;;;5082812;28;19928;-66
2023/05/06 09:18:13;;;;;;;;;;;16.80;99.90;;;;;;5082849;28;19924;-67
2023/05/06 09:20:40;;;;;;;;;;;16.90;99.90;;;;;;5083153;28;19988;-66
2023/05/06 09:23:08;;;;;;;;;;;17.00;99.90;;;;;;5083087;28;19921;-67
2023/05/06 09:25:36;;;;;;;;;;;17.00;99.90;;;;;;5082965;28;19925;-68
2023/05/06 09:28:03;;;;;;;;;;;17.00;99.90;;;;;;5082423;28;20224;-67
2023/05/06 09:30:30;;;;;;;;;;;17.10;99.90;;;;;;5080567;28;19924;-69
2023/05/06 09:32:57;;;;;;;;;;;17.10;99.90;;;;;;5083169;28;19920;-68
2023/05/06 09:35:26;;;;;;;;;;;17.10;99.90;;;;;;5083030;28;19991;-67
2023/05/06 09:37:53;;;;;;;;;;;17.10;99.90;;;;;;5082821;28;19920;-67
2023/05/06 09:40:22;;;;;;;;;;;17.10;99.90;;;;;;5082174;28;20111;-67
2023/05/06 09:42:51;;;;;;;;;;;17.00;99.90;;;;;;5090479;28;19927;-67
2023/05/06 09:45:18;;;;;;;;;;;17.10;99.90;;;;;;5106581;28;20223;-68
2023/05/06 09:47:44;;;;;;;;;;;17.20;99.90;;;;;;5106676;28;19955;-67
2023/05/06 09:50:13;;;;;;;;;;;17.30;99.90;;;;;;5106843;28;20116;-68
2023/05/06 09:52:40;;;;;;;;;;;17.50;99.90;;;;;;5106961;28;19926;-68
2023/05/06 09:55:07;;;;;;;;;;;17.70;99.90;;;;;;5106905;28;19920;-67
2023/05/06 09:57:34;;;;;;;;;;;17.80;99.90;;;;;;5103817;28;19920;-67
2023/05/06 10:00:02;;;;;;;;;;;17.80;99.90;;;;;;5106340;28;20270;-67
2023/05/06 10:02:29;;;;;;;;;;;17.90;99.90;;;;;;5105108;28;20538;-67
2023/05/06 10:04:56;;;;;;;;;;;18.00;99.90;;;;;;5106605;28;19920;-66
2023/05/06 10:07:24;;;;;;;;;;;18.00;99.90;;;;;;5103037;28;19932;-68
2023/05/06 10:09:51;;;;;;;;;;;18.20;99.90;;;;;;5106618;28;19920;-68
2023/05/06 10:12:18;;;;;;;;;;;18.20;99.90;;;;;;5105493;28;19983;-69
2023/05/06 10:14:45;;;;;;;;;;;18.30;99.90;;;;;;5106340;28;19920;-68
2023/05/06 10:17:14;;;;;;;;;;;18.40;99.90;;;;;;5105477;28;19983;-68
2023/05/06 10:19:43;;;;;;;;;;;18.50;99.90;;;;;;5106222;28;19926;-68
2023/05/06 10:22:15;;;;;;;;;;;18.50;99.90;;;;;;5105387;28;20097;-67
2023/05/06 10:24:47;;;;;;;;;;;18.60;99.90;;;;;;5105655;28;19920;-67
2023/05/06 10:27:15;;;;;;;;;;;18.60;99.90;;;;;;5105447;28;20447;-68
2023/05/06 10:29:43;;;;;;;;;;;18.80;99.90;;;;;;5105950;28;19920;-68
2023/05/06 10:32:11;;;;;;;;;;;18.80;99.90;;;;;;5096418;28;19927;-68
2023/05/06 10:34:44;;;;;;;;;;;19.00;99.90;;;;;;5086429;28;20164;-67
2023/05/06 10:37:11;;;;;;;;;;;19.10;99.90;;;;;;5083875;28;19920;-69
2023/05/06 10:39:40;;;;;;;;;;;19.20;99.90;;;;;;5084263;28;19920;-68
2023/05/06 10:42:09;;;;;;;;;;;19.20;99.90;;;;;;5085001;28;19921;-68
2023/05/06 10:44:55;;;;;;;;;;;19.20;99.90;;;;;;5085058;28;19920;-68
2023/05/06 10:47:22;;;;;;;;;;;19.10;99.90;;;;;;5084895;28;19926;-70
2023/05/06 10:50:03;;;;;;;;;;;18.90;99.90;;;;;;5083070;28;20208;-68
2023/05/06 10:52:45;;;;;;;;;;;18.90;99.90;;;;;;5085158;28;19920;-69
2023/05/06 10:55:24;;;;;;;;;;;19.00;99.90;;;;;;5086575;28;19920;-67
2023/05/06 10:57:53;;;;;;;;;;;19.10;99.90;;;;;;5099493;28;20107;-68
2023/05/06 11:00:20;;;;;;;;;;;19.30;99.90;;;;;;5102988;28;19942;-67
2023/05/06 11:02:50;;;;;;;;;;;19.50;99.90;;;;;;5102322;28;20152;-74
2023/05/06 11:05:16;;;;;;;;;;;19.70;99.90;;;;;;5084872;28;19983;-68
2023/05/06 11:07:44;;;;;;;;;;;19.80;99.90;;;;;;5084583;28;19987;-68
2023/05/06 11:10:11;;;;;;;;;;;19.90;99.90;;;;;;5091586;28;19955;-67
2023/05/06 11:12:45;;;;;;;;;;;19.90;99.90;;;;;;5089812;28;20180;-68
2023/05/06 11:15:27;;;;;;;;;;;20.00;99.90;;;;;;5105147;28;19992;-67
2023/05/06 11:17:54;;;;;;;;;;;20.20;99.90;;;;;;5104630;28;19969;-69
2023/05/06 11:20:22;;;;;;;;;;;20.00;99.90;;;;;;5105058;28;20326;-68
2023/05/06 11:22:52;;;;;;;;;;;19.90;99.90;;;;;;5103802;28;20389;-67
2023/05/06 11:25:37;;;;;;;;;;;19.80;99.90;;;;;;5105182;28;20127;-68
2023/05/06 11:28:06;;;;;;;;;;;19.60;99.90;;;;;;5104165;28;20234;-67
2023/05/06 11:30:33;;;;;;;;;;;19.50;99.90;;;;;;5083274;28;19920;-68
2023/05/06 11:33:03;;;;;;;;;;;19.60;99.90;;;;;;5083704;28;19921;-68
2023/05/06 11:35:34;;;;;;;;;;;19.80;99.90;;;;;;5082007;28;19926;-69
2023/05/06 11:38:02;;;;;;;;;;;19.90;99.90;;;;;;5083572;28;20155;-68
2023/05/06 11:40:29;;;;;;;;;;;19.80;99.90;;;;;;5084370;28;19920;-69
2023/05/06 11:42:56;;;;;;;;;;;19.70;99.90;;;;;;5081978;28;19920;-69
2023/05/06 11:45:22;;;;;;;;;;;19.70;99.90;;;;;;5083400;28;19920;-69
2023/05/06 11:47:49;;;;;;;;;;;20.00;99.90;;;;;;5083922;28;19987;-68
2023/05/06 11:50:21;;;;;;;;;;;20.30;99.90;;;;;;5084272;28;19991;-68
2023/05/06 11:52:48;;;;;;;;;;;20.70;99.90;;;;;;5084269;28;19920;-69
2023/05/06 11:55:16;;;;;;;;;;;20.80;99.90;;;;;;5083936;28;20025;-68
2023/05/06 11:57:45;;;;;;;;;;;20.50;99.90;;;;;;5083682;28;20163;-69
2023/05/06 12:00:12;;;;;;;;;;;20.30;99.90;;;;;;5083780;28;19983;-68
2023/05/06 12:02:38;;;;;;;;;;;20.30;99.90;;;;;;5086638;28;19920;-68
2023/05/06 12:05:05;;;;;;;;;;;20.00;99.90;;;;;;5103943;28;19951;-69
2023/05/06 12:07:32;;;;;;;;;;;19.80;99.90;;;;;;5103760;28;19926;-69
2023/05/06 12:10:02;;;;;;;;;;;19.70;99.90;;;;;;5104263;28;19962;-68
2023/05/06 12:12:32;;;;;;;;;;;19.70;99.90;;;;;;5103924;28;20216;-69
2023/05/06 12:14:58;;;;;;;;;;;19.60;99.90;;;;;;5104100;28;19928;-68
2023/05/06 12:17:25;;;;;;;;;;;19.70;99.90;;;;;;5103206;28;19920;-69
2023/05/06 12:19:52;;;;;;;;;;;20.00;99.90;;;;;;5103812;28;19926;-68
2023/05/06 12:22:19;;;;;;;;;;;20.00;99.90;;;;;;5104022;28;19927;-68
2023/05/06 12:24:46;;;;;;;;;;;20.00;99.90;;;;;;5103062;28;19988;-69
2023/05/06 12:27:13;;;;;;;;;;;20.10;99.90;;;;;;5103450;28;19920;-69
2023/05/06 12:29:51;;;;;;;;;;;20.30;99.90;;;;;;5104095;28;19920;-69
2023/05/06 12:32:17;;;;;;;;;;;20.60;99.90;;;;;;5103611;28;19926;-69
2023/05/06 12:34:44;;;;;;;;;;;21.00;99.90;;;;;;5101878;28;19962;-68
2023/05/06 12:37:11;;;;;;;;;;;21.10;99.90;;;;;;5097449;28;19920;-69
2023/05/06 12:39:38;;;;;;;;;;;21.20;99.90;;;;;;5082207;28;20477;-68
2023/05/06 12:42:05;;;;;;;;;;;21.10;99.90;;;;;;5079768;28;20121;-73
2023/05/06 12:44:33;;;;;;;;;;;21.00;99.90;;;;;;5097928;28;20160;-70
2023/05/06 12:47:02;;;;;;;;;;;21.20;99.90;;;;;;5091089;28;19966;-69
2023/05/06 12:49:43;;;;;;;;;;;21.60;99.90;;;;;;5095650;28;19991;-69
2023/05/06 12:52:10;;;;;;;;;;;21.80;99.90;;;;;;5102888;28;19951;-68
2023/05/06 12:54:37;;;;;;;;;;;21.60;99.90;;;;;;5102128;28;19920;-69
2023/05/06 12:57:04;;;;;;;;;;;21.50;99.90;;;;;;5102314;28;19926;-68
2023/05/06 12:59:31;;;;;;;;;;;21.40;99.90;;;;;;5099321;28;19920;-68
2023/05/06 13:01:57;;;;;;;;;;;21.20;99.90;;;;;;5101829;28;19955;-69
2023/05/06 13:04:25;;;;;;;;;;;21.10;99.90;;;;;;5082505;28;20232;-68
2023/05/06 13:06:52;;;;;;;;;;;21.00;99.90;;;;;;5081571;28;19980;-68
2023/05/06 13:09:19;;;;;;;;;;;21.00;99.90;;;;;;5083155;28;19920;-69
2023/05/06 13:11:46;;;;;;;;;;;21.00;99.90;;;;;;5082714;28;20228;-68
2023/05/06 13:14:12;;;;;;;;;;;21.00;99.90;;;;;;5082786;28;19920;-68
2023/05/06 13:16:40;;;;;;;;;;;21.10;99.90;;;;;;5087981;28;20220;-68
2023/05/06 13:19:08;;;;;;;;;;;21.30;99.90;;;;;;5086186;28;19983;-69
2023/05/06 13:21:37;;;;;;;;;;;21.20;99.90;;;;;;5090959;28;20003;-69
2023/05/06 13:24:04;;;;;;;;;;;21.20;99.90;;;;;;5093442;28;19920;-69
2023/05/06 13:26:31;;;;;;;;;;;21.10;99.90;;;;;;5085817;28;20246;-69
2023/05/06 13:28:58;;;;;;;;;;;21.10;99.90;;;;;;5086619;28;19952;-69
2023/05/06 13:31:26;;;;;;;;;;;21.20;99.90;;;;;;5086865;28;19970;-69
2023/05/06 13:33:52;;;;;;;;;;;21.40;99.90;;;;;;5086499;28;19987;-68
2023/05/06 13:36:19;;;;;;;;;;;21.70;99.90;;;;;;5086477;28;19927;-68
2023/05/06 13:38:47;;;;;;;;;;;22.00;99.90;;;;;;5086315;28;20008;-70
2023/05/06 13:41:15;;;;;;;;;;;22.40;99.90;;;;;;5085599;28;19920;-68
2023/05/06 13:43:41;;;;;;;;;;;22.40;99.90;;;;;;5086536;28;19928;-69
2023/05/06 13:46:08;;;;;;;;;;;22.50;99.90;;;;;;5085775;28;19987;-69
2023/05/06 13:48:35;;;;;;;;;;;22.80;99.90;;;;;;5087759;28;20267;-68
2023/05/06 13:51:02;;;;;;;;;;;23.00;99.90;;;;;;5097283;28;19920;-69
2023/05/06 13:53:28;;;;;;;;;;;23.00;99.90;;;;;;5123163;28;19926;-68
2023/05/06 13:55:56;;;;;;;;;;;23.00;99.90;;;;;;5091201;28;19928;-69
2023/05/06 13:58:23;;;;;;;;;;;22.70;99.90;;;;;;5085776;28;19921;-69
2023/05/06 14:00:50;;;;;;;;;;;22.30;99.90;;;;;;5086277;28;19926;-69
2023/05/06 14:03:16;;;;;;;;;;;22.10;99.90;;;;;;5086227;28;19928;-69
2023/05/06 14:05:43;;;;;;;;;;;22.20;99.90;;;;;;5097371;28;19934;-68
2023/05/06 14:08:09;;;;;;;;;;;22.20;99.90;;;;;;5106071;28;19920;-68
2023/05/06 14:10:36;;;;;;;;;;;22.20;99.90;;;;;;5105785;28;20180;-69
2023/05/06 14:13:04;;;;;;;;;;;22.20;99.90;;;;;;5085958;28;19921;-70
2023/05/06 14:15:31;;;;;;;;;;;22.20;99.90;;;;;;5086001;28;19942;-68
2023/05/06 14:17:57;;;;;;;;;;;22.40;99.90;;;;;;5085504;28;19987;-70